createdAt,value
2018-07-19T00:01:10.723Z,15.87
2018-07-19T00:03:36.701Z,15.85
2018-07-19T00:06:02.668Z,15.79
2018-07-19T00:08:28.638Z,15.76
2018-07-19T00:10:54.616Z,15.72
2018-07-19T00:13:20.587Z,15.71
2018-07-19T00:15:46.565Z,15.71
2018-07-19T00:18:12.604Z,15.66
2018-07-19T00:20:38.579Z,15.64
2018-07-19T00:23:04.556Z,15.63
2018-07-19T00:25:30.543Z,15.59
2018-07-19T00:27:56.527Z,15.59
2018-07-19T00:30:22.508Z,15.55
2018-07-19T00:32:48.495Z,15.53
2018-07-19T00:35:14.484Z,15.50
2018-07-19T00:37:40.476Z,15.46
2018-07-19T00:40:07.324Z,15.43
2018-07-19T00:42:33.298Z,15.43
2018-07-19T00:44:59.275Z,15.42
2018-07-19T00:47:25.247Z,15.41
2018-07-19T00:49:51.243Z,15.41
2018-07-19T00:52:17.207Z,15.36
2018-07-19T00:54:43.181Z,15.36
2018-07-19T00:57:09.153Z,15.34
2018-07-19T00:59:35.138Z,15.35
2018-07-19T01:02:01.096Z,15.37
2018-07-19T01:04:27.061Z,15.34
2018-07-19T01:06:53.059Z,15.35
2018-07-19T01:09:19.039Z,15.30
2018-07-19T01:11:45.004Z,15.29
2018-07-19T01:14:10.980Z,15.23
2018-07-19T01:16:36.955Z,15.20
2018-07-19T01:19:02.990Z,15.18
2018-07-19T01:21:28.969Z,15.18
2018-07-19T01:23:54.942Z,15.17
2018-07-19T01:26:20.905Z,15.16
2018-07-19T01:28:46.980Z,15.16
2018-07-19T01:31:12.963Z,15.12
2018-07-19T01:33:38.939Z,15.08
2018-07-19T01:36:04.944Z,15.06
2018-07-19T01:38:30.931Z,15.04
2018-07-19T01:40:56.909Z,14.97
2018-07-19T01:43:22.892Z,14.92
2018-07-19T01:45:48.858Z,14.88
2018-07-19T01:48:14.839Z,14.84
2018-07-19T01:50:40.816Z,14.84
2018-07-19T01:53:06.799Z,14.79
2018-07-19T01:55:32.773Z,14.76
2018-07-19T01:57:58.744Z,14.71
2018-07-19T02:00:24.737Z,14.70
2018-07-19T02:02:50.716Z,14.70
2018-07-19T02:05:16.709Z,14.64
2018-07-19T02:07:42.677Z,14.55
2018-07-19T02:10:08.671Z,14.50
2018-07-19T02:12:34.652Z,14.50
2018-07-19T02:15:00.656Z,14.49
2018-07-19T02:17:26.639Z,14.47
2018-07-19T02:19:52.637Z,14.46
2018-07-19T02:22:18.647Z,14.45
2018-07-19T02:24:44.705Z,14.46
2018-07-19T02:27:10.660Z,14.45
2018-07-19T02:29:36.626Z,14.40
2018-07-19T02:32:02.646Z,14.36
2018-07-19T02:34:30.311Z,14.32
2018-07-19T02:36:57.767Z,14.33
2018-07-19T02:39:25.254Z,14.30
2018-07-19T02:41:51.861Z,14.27
2018-07-19T02:44:17.884Z,14.24
2018-07-19T02:46:43.851Z,14.19
2018-07-19T02:49:09.868Z,14.16
2018-07-19T02:51:35.839Z,14.15
2018-07-19T02:54:01.813Z,14.12
2018-07-19T02:56:27.819Z,14.11
2018-07-19T02:58:53.778Z,14.08
2018-07-19T03:01:19.748Z,14.04
2018-07-19T03:03:45.740Z,14.03
2018-07-19T03:06:11.720Z,13.97
2018-07-19T03:08:37.685Z,13.95
2018-07-19T03:11:03.659Z,13.93
2018-07-19T03:13:29.638Z,13.91
2018-07-19T03:15:55.615Z,13.91
2018-07-19T03:18:21.597Z,13.90
2018-07-19T03:20:47.568Z,13.90
2018-07-19T03:23:13.550Z,13.84
2018-07-19T03:25:39.535Z,13.83
2018-07-19T03:28:05.530Z,13.81
2018-07-19T03:30:31.839Z,13.75
2018-07-19T03:32:57.914Z,13.70
2018-07-19T03:35:23.892Z,13.69
2018-07-19T03:37:49.921Z,13.67
2018-07-19T03:40:15.999Z,13.66
2018-07-19T03:42:41.930Z,13.63
2018-07-19T03:45:07.905Z,13.62
2018-07-19T03:47:33.925Z,13.59
2018-07-19T03:49:59.945Z,13.58
2018-07-19T03:52:25.927Z,13.57
2018-07-19T03:54:51.913Z,13.59
2018-07-19T03:57:17.880Z,13.59
2018-07-19T03:59:43.873Z,13.56
2018-07-19T04:02:09.837Z,13.54
2018-07-19T04:04:35.847Z,13.54
2018-07-19T04:07:01.821Z,13.52
2018-07-19T04:09:27.805Z,13.53
2018-07-19T04:11:53.799Z,13.57
2018-07-19T04:14:19.789Z,13.64
2018-07-19T04:16:45.768Z,13.71
2018-07-19T04:19:11.837Z,13.76
2018-07-19T04:21:37.814Z,13.79
2018-07-19T04:24:04.040Z,13.81
2018-07-19T04:26:30.028Z,13.85
2018-07-19T04:28:56.003Z,13.89
2018-07-19T04:31:21.989Z,13.90
2018-07-19T04:33:47.973Z,13.91
2018-07-19T04:36:13.953Z,13.94
2018-07-19T04:38:39.923Z,13.95
2018-07-19T04:41:05.914Z,13.93
2018-07-19T04:43:31.892Z,13.95
2018-07-19T04:45:57.881Z,13.99
2018-07-19T04:48:23.905Z,14.02
2018-07-19T04:50:49.866Z,14.07
2018-07-19T04:53:15.841Z,14.10
2018-07-19T04:55:41.836Z,14.13
2018-07-19T04:58:07.816Z,14.19
2018-07-19T05:00:33.785Z,14.21
2018-07-19T05:02:59.753Z,14.27
2018-07-19T05:05:25.736Z,14.28
2018-07-19T05:07:51.752Z,14.34
2018-07-19T05:10:17.724Z,14.37
2018-07-19T05:12:43.704Z,14.42
2018-07-19T05:15:09.688Z,14.47
2018-07-19T05:17:35.663Z,14.53
2018-07-19T05:20:01.633Z,14.63
2018-07-19T05:22:27.604Z,14.70
2018-07-19T05:24:53.630Z,14.82
2018-07-19T05:27:19.605Z,15.00
2018-07-19T05:29:45.668Z,15.20
2018-07-19T05:32:11.632Z,15.39
2018-07-19T05:34:37.646Z,15.61
2018-07-19T05:37:03.613Z,15.83
2018-07-19T05:39:29.578Z,16.04
2018-07-19T05:41:55.568Z,16.25
2018-07-19T05:44:21.544Z,16.49
2018-07-19T05:46:47.539Z,16.65
2018-07-19T05:49:13.504Z,16.86
2018-07-19T05:51:39.490Z,17.04
2018-07-19T05:54:05.469Z,17.27
2018-07-19T05:56:31.456Z,17.47
2018-07-19T05:58:57.424Z,17.64
2018-07-19T06:01:23.408Z,17.81
2018-07-19T06:03:49.371Z,17.94
2018-07-19T06:06:15.356Z,18.15
2018-07-19T06:08:41.340Z,18.31
2018-07-19T06:11:07.321Z,18.51
2018-07-19T06:13:33.306Z,18.68
2018-07-19T06:15:59.340Z,18.91
2018-07-19T06:18:25.293Z,19.17
2018-07-19T06:20:51.658Z,19.37
2018-07-19T06:23:17.760Z,19.59
2018-07-19T06:25:44.833Z,19.78
2018-07-19T06:28:10.816Z,20.03
2018-07-19T06:30:36.805Z,20.22
2018-07-19T06:33:02.821Z,20.40
2018-07-19T06:35:28.828Z,20.58
2018-07-19T06:37:54.847Z,20.73
2018-07-19T06:40:20.788Z,20.86
2018-07-19T06:42:46.773Z,20.96
2018-07-19T06:45:12.761Z,21.11
2018-07-19T06:47:38.757Z,21.24
2018-07-19T06:50:04.748Z,21.32
2018-07-19T06:52:30.724Z,21.43
2018-07-19T06:54:56.703Z,21.51
2018-07-19T06:57:22.741Z,21.67
2018-07-19T06:59:48.685Z,21.77
2018-07-19T07:02:14.679Z,21.97
2018-07-19T07:04:40.653Z,22.09
2018-07-19T07:07:06.666Z,22.22
2018-07-19T07:09:32.656Z,22.38
2018-07-19T07:11:58.642Z,22.52
2018-07-19T07:14:24.668Z,22.60
2018-07-19T07:16:50.653Z,22.76
2018-07-19T07:19:16.636Z,22.79
2018-07-19T07:21:42.625Z,22.91
2018-07-19T07:24:08.596Z,23.03
2018-07-19T07:26:34.560Z,23.19
2018-07-19T07:29:00.568Z,23.29
2018-07-19T07:31:26.591Z,23.38
2018-07-19T07:33:52.558Z,23.30
2018-07-19T07:36:18.581Z,23.34
2018-07-19T07:38:44.570Z,23.32
2018-07-19T07:41:10.555Z,23.33
2018-07-19T07:43:36.524Z,23.31
2018-07-19T07:46:02.499Z,23.36
2018-07-19T07:48:28.476Z,23.42
2018-07-19T07:50:54.452Z,23.46
2018-07-19T07:53:20.427Z,23.57
2018-07-19T07:55:46.413Z,23.71
2018-07-19T07:58:12.394Z,23.83
2018-07-19T08:00:38.388Z,24.08
2018-07-19T08:03:04.358Z,24.24
2018-07-19T08:05:30.353Z,24.52
2018-07-19T08:07:56.359Z,24.81
2018-07-19T08:10:22.329Z,25.06
2018-07-19T08:12:48.313Z,25.28
2018-07-19T08:15:14.296Z,25.41
2018-07-19T08:17:40.279Z,25.48
2018-07-19T08:20:06.410Z,25.63
2018-07-19T08:22:32.635Z,25.86
2018-07-19T08:24:58.616Z,26.01
2018-07-19T08:27:24.606Z,26.13
2018-07-19T08:29:50.596Z,26.31
2018-07-19T08:32:16.598Z,26.37
2018-07-19T08:34:42.565Z,26.53
2018-07-19T08:37:08.543Z,26.70
2018-07-19T08:39:34.551Z,26.79
2018-07-19T08:42:00.524Z,26.95
2018-07-19T08:44:26.496Z,27.00
2018-07-19T08:46:52.520Z,27.11
2018-07-19T08:49:18.499Z,27.16
2018-07-19T08:51:44.507Z,27.17
2018-07-19T08:54:10.505Z,27.13
2018-07-19T08:56:36.502Z,27.13
2018-07-19T08:59:02.508Z,27.17
2018-07-19T09:01:28.484Z,27.20
2018-07-19T09:03:54.485Z,27.07
2018-07-19T09:06:20.487Z,27.00
2018-07-19T09:08:46.486Z,26.96
2018-07-19T09:11:12.464Z,26.97
2018-07-19T09:13:38.448Z,27.00
2018-07-19T09:16:04.427Z,27.05
2018-07-19T09:18:30.424Z,27.15
2018-07-19T09:20:56.800Z,27.23
2018-07-19T09:23:22.854Z,27.39
2018-07-19T09:25:49.142Z,27.51
2018-07-19T09:28:15.158Z,27.63
2018-07-19T09:30:41.204Z,27.60
2018-07-19T09:33:07.338Z,27.73
2018-07-19T09:35:33.358Z,27.84
2018-07-19T09:38:08.305Z,27.94
2018-07-19T09:40:34.941Z,27.82
2018-07-19T09:43:01.004Z,27.74
2018-07-19T09:45:26.993Z,27.91
2018-07-19T09:47:53.144Z,28.11
2018-07-19T09:50:21.078Z,28.35
2018-07-19T09:52:47.336Z,28.65
2018-07-19T09:55:13.336Z,28.86
2018-07-19T09:57:44.518Z,29.07
2018-07-19T10:00:10.510Z,29.07
2018-07-19T10:02:37.036Z,29.02
2018-07-19T10:05:07.560Z,28.79
2018-07-19T10:07:33.557Z,28.77
2018-07-19T10:10:00.080Z,28.67
2018-07-19T10:12:25.997Z,28.97
2018-07-19T10:17:23.468Z,29.23
2018-07-19T10:19:49.499Z,29.33
2018-07-19T10:22:15.508Z,29.19
2018-07-19T10:24:41.705Z,29.42
2018-07-19T10:27:07.886Z,29.38
2018-07-19T10:29:34.231Z,29.46
2018-07-19T10:32:00.550Z,29.41
2018-07-19T10:34:27.568Z,29.46
2018-07-19T10:36:54.049Z,29.49
2018-07-19T10:39:20.265Z,29.31
2018-07-19T10:41:46.287Z,29.31
2018-07-19T10:44:12.321Z,29.35
2018-07-19T10:46:38.741Z,29.34
2018-07-19T10:49:04.915Z,29.36
2018-07-19T10:51:30.956Z,29.42
2018-07-19T10:53:57.130Z,29.43
2018-07-19T10:56:23.200Z,29.59
2018-07-19T10:58:49.340Z,29.58
2018-07-19T11:01:15.312Z,29.70
2018-07-19T11:03:41.635Z,29.63
2018-07-19T11:06:07.961Z,29.77
2018-07-19T11:08:33.959Z,29.85
2018-07-19T11:11:00.081Z,29.95
2018-07-19T11:13:26.233Z,29.98
2018-07-19T11:15:52.482Z,29.92
2018-07-19T11:18:18.458Z,30.08
2018-07-19T11:35:54.166Z,30.03
2018-07-19T11:38:20.131Z,29.76
2018-07-19T11:40:47.151Z,29.76
2018-07-19T11:43:13.213Z,29.79
2018-07-19T11:45:40.477Z,29.96
2018-07-19T11:48:06.475Z,30.07
2018-07-19T11:50:32.653Z,30.24
2018-07-19T11:52:58.674Z,30.75
2018-07-19T11:55:24.678Z,31.22
2018-07-19T11:57:50.716Z,31.79
2018-07-19T12:00:16.707Z,32.30
2018-07-19T12:02:42.684Z,32.99
2018-07-19T12:05:09.049Z,33.52
2018-07-19T12:07:35.085Z,34.05
2018-07-19T12:10:01.104Z,34.64
2018-07-19T12:12:27.220Z,35.15
2018-07-19T12:14:58.408Z,36.03
2018-07-19T12:17:24.504Z,37.03
2018-07-19T12:19:51.756Z,37.72
2018-07-19T12:22:17.724Z,38.32
2018-07-19T12:24:43.696Z,38.55
2018-07-19T12:27:09.670Z,38.18
2018-07-19T12:29:39.109Z,37.54
2018-07-19T12:32:05.088Z,36.87
2018-07-19T12:34:31.374Z,36.14
2018-07-19T12:36:59.011Z,35.47
2018-07-19T12:39:25.293Z,34.98
2018-07-19T12:41:51.463Z,34.70
2018-07-19T12:44:17.488Z,34.75
2018-07-19T12:46:43.533Z,35.65
2018-07-19T12:49:09.526Z,37.06
2018-07-19T12:51:35.532Z,37.88
2018-07-19T12:54:01.540Z,37.83
2018-07-19T12:56:27.514Z,37.49
2018-07-19T12:58:53.753Z,37.22
2018-07-19T13:01:19.880Z,37.91
2018-07-19T13:03:45.859Z,38.25
2018-07-19T13:06:11.832Z,39.33
2018-07-19T13:13:04.941Z,41.06
2018-07-19T13:15:30.932Z,41.95
2018-07-19T13:17:57.028Z,42.56
2018-07-19T13:20:23.046Z,43.16
2018-07-19T13:22:49.105Z,43.42
2018-07-19T13:25:15.061Z,42.80
2018-07-19T13:27:41.107Z,42.19
2018-07-19T13:30:07.097Z,42.58
2018-07-19T13:32:33.102Z,43.48
2018-07-19T13:34:59.111Z,44.61
2018-07-19T13:37:25.149Z,45.62
2018-07-19T13:39:51.124Z,46.52
2018-07-19T13:42:17.427Z,47.26
2018-07-19T13:47:24.077Z,48.93
2018-07-19T13:49:53.015Z,49.40
2018-07-19T13:52:18.989Z,49.67
2018-07-19T13:54:44.968Z,50.35
2018-07-19T13:57:11.030Z,50.35
2018-07-19T13:59:37.258Z,50.28
2018-07-19T14:02:03.255Z,50.05
2018-07-19T14:04:29.464Z,50.08
2018-07-19T14:06:58.844Z,50.20
2018-07-19T14:09:24.804Z,50.48
2018-07-19T14:11:50.784Z,49.61
2018-07-19T14:14:20.069Z,49.43
2018-07-19T14:16:46.177Z,49.44
2018-07-19T14:19:12.465Z,49.48
2018-07-19T14:21:39.031Z,49.37
2018-07-19T14:24:04.996Z,49.96
2018-07-19T14:26:31.029Z,50.04
2018-07-19T14:28:57.178Z,49.32
2018-07-19T14:31:23.235Z,48.00
2018-07-19T14:33:49.447Z,46.91
2018-07-19T14:36:15.517Z,46.10
2018-07-19T14:38:41.489Z,44.59
2018-07-19T14:41:07.611Z,43.71
2018-07-19T14:43:33.760Z,43.25
2018-07-19T14:46:01.901Z,42.41
2018-07-19T14:48:27.930Z,41.68
2018-07-19T14:50:53.902Z,41.53
2018-07-19T14:53:21.035Z,42.20
2018-07-19T14:55:47.439Z,43.01
2018-07-19T14:58:13.418Z,44.26
2018-07-19T15:00:39.481Z,45.55
2018-07-19T15:03:05.452Z,46.26
2018-07-19T15:05:31.431Z,45.82
2018-07-19T15:07:57.497Z,45.03
2018-07-19T15:10:23.697Z,44.23
2018-07-19T15:12:51.564Z,43.18
2018-07-19T15:15:17.732Z,42.92
2018-07-19T15:17:43.853Z,43.17
2018-07-19T15:20:10.246Z,43.19
2018-07-19T15:22:36.353Z,42.98
2018-07-19T15:25:03.390Z,42.03
2018-07-19T15:27:29.684Z,41.08
2018-07-19T15:29:55.717Z,40.73
2018-07-19T15:32:21.794Z,40.09
2018-07-19T15:34:47.878Z,39.68
2018-07-19T15:37:13.939Z,39.58
2018-07-19T15:39:40.053Z,39.24
2018-07-19T15:42:06.296Z,39.35
2018-07-19T15:44:32.844Z,39.39
2018-07-19T15:47:01.543Z,39.92
2018-07-19T15:49:27.616Z,40.05
2018-07-19T15:51:53.862Z,40.86
2018-07-19T15:54:20.223Z,41.01
2018-07-19T15:59:20.368Z,40.20
2018-07-19T16:01:48.286Z,40.23
2018-07-19T16:04:17.844Z,40.58
2018-07-19T16:06:44.053Z,40.57
2018-07-19T16:09:10.200Z,40.71
2018-07-19T16:11:36.381Z,40.61
2018-07-19T16:14:02.673Z,40.23
2018-07-19T16:16:29.334Z,39.71
2018-07-19T16:18:55.495Z,39.41
2018-07-19T16:21:21.750Z,39.16
2018-07-19T16:23:53.357Z,39.41
2018-07-19T16:26:20.272Z,39.67
2018-07-19T16:28:46.515Z,40.18
2018-07-19T16:31:12.641Z,40.31
2018-07-19T16:33:39.039Z,40.14
2018-07-19T16:36:05.181Z,40.44
2018-07-19T16:38:31.254Z,40.76
2018-07-19T16:40:57.571Z,40.76
2018-07-19T16:43:23.899Z,40.54
2018-07-19T16:45:50.186Z,40.84
2018-07-19T16:48:16.367Z,41.01
2018-07-19T16:50:43.016Z,40.90
2018-07-19T16:53:09.207Z,41.29
2018-07-19T16:55:35.388Z,41.20
2018-07-19T16:58:01.874Z,40.70
2018-07-19T17:00:27.989Z,40.22
2018-07-19T17:02:54.210Z,40.35
2018-07-19T17:05:20.263Z,40.48
2018-07-19T17:07:46.856Z,40.63
2018-07-19T17:10:13.076Z,40.33
2018-07-19T17:12:39.324Z,40.09
2018-07-19T17:15:05.530Z,39.76
2018-07-19T17:17:31.541Z,39.49
2018-07-19T17:19:57.557Z,38.77
2018-07-19T17:22:24.257Z,38.34
2018-07-19T17:24:50.438Z,37.84
2018-07-19T17:29:48.676Z,36.60
2018-07-19T17:32:14.760Z,36.33
2018-07-19T17:34:41.753Z,36.08
2018-07-19T17:37:07.785Z,35.81
2018-07-19T17:39:33.863Z,35.56
2018-07-19T17:42:00.178Z,35.26
2018-07-19T17:44:26.182Z,34.92
2018-07-19T17:46:52.163Z,34.60
2018-07-19T17:49:18.153Z,34.12
2018-07-19T17:51:44.113Z,33.70
2018-07-19T17:54:10.101Z,33.32
2018-07-19T17:59:09.358Z,32.18
2018-07-19T18:01:35.741Z,31.66
2018-07-19T18:04:01.793Z,31.31
2018-07-19T18:06:27.763Z,30.86
2018-07-19T18:08:53.737Z,30.51
2018-07-19T18:11:19.915Z,30.17
2018-07-19T18:13:45.891Z,29.84
2018-07-19T18:16:11.860Z,29.56
2018-07-19T18:18:37.829Z,29.40
2018-07-19T18:21:04.045Z,29.17
2018-07-19T18:23:30.084Z,28.98
2018-07-19T18:28:29.007Z,28.88
2018-07-19T18:30:55.033Z,28.87
2018-07-19T18:33:21.011Z,28.88
2018-07-19T18:38:18.365Z,29.17
2018-07-19T18:40:45.346Z,29.32
2018-07-19T18:43:11.395Z,29.38
2018-07-19T18:45:37.352Z,29.32
2018-07-19T18:48:03.319Z,29.31
2018-07-19T18:50:29.376Z,28.99
2018-07-19T18:52:55.343Z,28.77
2018-07-19T18:55:21.688Z,28.48
2018-07-19T18:57:47.905Z,28.21
2018-07-19T19:00:13.997Z,27.88
2018-07-19T19:02:40.033Z,27.56
2018-07-19T19:07:41.854Z,26.94
2018-07-19T19:10:07.843Z,26.73
2018-07-19T19:12:33.895Z,26.47
2018-07-19T19:14:59.921Z,26.27
2018-07-19T19:17:25.884Z,26.12
2018-07-19T19:19:51.850Z,25.90
2018-07-19T19:22:17.856Z,25.67
2018-07-19T19:24:43.839Z,25.43
2018-07-19T19:27:09.818Z,25.21
2018-07-19T19:29:35.808Z,25.05
2018-07-19T19:32:01.779Z,24.82
